sensor_id;sensor_type;location;lat;lon;timestamp;P1;durP1;ratioP1;P2;durP2;ratioP2
35578;SDS011;21687;48.900;9.188;2024-01-06T00:02:04;10.90;;;7.20;;
35578;SDS011;21687;48.900;9.188;2024-01-06T00:04:30;10.57;;;7.40;;
35578;SDS011;21687;48.900;9.188;2024-01-06T00:06:57;10.80;;;6.87;;
35578;SDS011;21687;48.900;9.188;2024-01-06T00:09:23;11.03;;;6.30;;
35578;SDS011;21687;48.900;9.188;2024-01-06T00:11:50;8.97;;;5.80;;
35578;SDS011;21687;48.900;9.188;2024-01-06T00:14:16;11.73;;;5.97;;
35578;SDS011;21687;48.900;9.188;2024-01-06T00:16:42;9.20;;;5.77;;
35578;SDS011;21687;48.900;9.188;2024-01-06T00:19:09;8.57;;;5.27;;
35578;SDS011;21687;48.900;9.188;2024-01-06T00:21:35;7.40;;;4.67;;
35578;SDS011;21687;48.900;9.188;2024-01-06T00:24:01;8.13;;;5.27;;
35578;SDS011;21687;48.900;9.188;2024-01-06T00:26:28;6.40;;;4.30;;
35578;SDS011;21687;48.900;9.188;2024-01-06T00:28:55;8.53;;;4.33;;
35578;SDS011;21687;48.900;9.188;2024-01-06T00:31:21;6.33;;;4.37;;
35578;SDS011;21687;48.900;9.188;2024-01-06T00:33:47;7.77;;;4.20;;
35578;SDS011;21687;48.900;9.188;2024-01-06T00:36:14;6.90;;;3.97;;
35578;SDS011;21687;48.900;9.188;2024-01-06T00:38:40;9.03;;;3.87;;
35578;SDS011;21687;48.900;9.188;2024-01-06T00:41:06;8.10;;;3.70;;
35578;SDS011;21687;48.900;9.188;2024-01-06T00:43:33;8.13;;;3.53;;
35578;SDS011;21687;48.900;9.188;2024-01-06T00:45:59;5.80;;;3.60;;
35578;SDS011;21687;48.900;9.188;2024-01-06T00:48:26;5.43;;;3.73;;
35578;SDS011;21687;48.900;9.188;2024-01-06T00:50:52;10.10;;;3.90;;
35578;SDS011;21687;48.900;9.188;2024-01-06T00:53:18;6.20;;;3.60;;
35578;SDS011;21687;48.900;9.188;2024-01-06T00:55:45;8.03;;;3.90;;
35578;SDS011;21687;48.900;9.188;2024-01-06T00:58:11;11.63;;;4.03;;
35578;SDS011;21687;48.900;9.188;2024-01-06T01:00:38;6.30;;;4.17;;
35578;SDS011;21687;48.900;9.188;2024-01-06T01:03:05;8.47;;;3.90;;
35578;SDS011;21687;48.900;9.188;2024-01-06T01:05:31;6.17;;;3.80;;
35578;SDS011;21687;48.900;9.188;2024-01-06T01:07:57;6.90;;;3.20;;
35578;SDS011;21687;48.900;9.188;2024-01-06T01:10:24;6.93;;;3.70;;
35578;SDS011;21687;48.900;9.188;2024-01-06T01:12:50;4.50;;;2.80;;
35578;SDS011;21687;48.900;9.188;2024-01-06T01:15:17;6.30;;;3.13;;
35578;SDS011;21687;48.900;9.188;2024-01-06T01:17:43;7.27;;;3.67;;
35578;SDS011;21687;48.900;9.188;2024-01-06T01:20:10;5.70;;;3.23;;
35578;SDS011;21687;48.900;9.188;2024-01-06T01:22:36;6.37;;;2.90;;
35578;SDS011;21687;48.900;9.188;2024-01-06T01:25:03;6.90;;;2.60;;
35578;SDS011;21687;48.900;9.188;2024-01-06T01:27:35;5.80;;;2.30;;
35578;SDS011;21687;48.900;9.188;2024-01-06T01:30:02;6.23;;;2.90;;
35578;SDS011;21687;48.900;9.188;2024-01-06T01:32:28;6.00;;;3.13;;
35578;SDS011;21687;48.900;9.188;2024-01-06T01:34:55;7.90;;;3.77;;
35578;SDS011;21687;48.900;9.188;2024-01-06T01:37:21;3.97;;;2.73;;
35578;SDS011;21687;48.900;9.188;2024-01-06T01:39:48;5.80;;;2.23;;
35578;SDS011;21687;48.900;9.188;2024-01-06T01:42:14;6.60;;;3.03;;
35578;SDS011;21687;48.900;9.188;2024-01-06T01:44:41;4.37;;;2.10;;
35578;SDS011;21687;48.900;9.188;2024-01-06T01:47:07;7.83;;;2.40;;
35578;SDS011;21687;48.900;9.188;2024-01-06T01:49:34;6.47;;;2.37;;
35578;SDS011;21687;48.900;9.188;2024-01-06T01:52:01;7.33;;;2.10;;
35578;SDS011;21687;48.900;9.188;2024-01-06T01:54:29;5.13;;;2.30;;
35578;SDS011;21687;48.900;9.188;2024-01-06T01:56:55;7.57;;;3.20;;
35578;SDS011;21687;48.900;9.188;2024-01-06T01:59:22;4.67;;;2.57;;
35578;SDS011;21687;48.900;9.188;2024-01-06T02:01:48;9.03;;;2.50;;
35578;SDS011;21687;48.900;9.188;2024-01-06T02:04:15;9.10;;;2.50;;
35578;SDS011;21687;48.900;9.188;2024-01-06T02:06:42;5.73;;;2.10;;
35578;SDS011;21687;48.900;9.188;2024-01-06T02:09:08;5.57;;;2.47;;
35578;SDS011;21687;48.900;9.188;2024-01-06T02:11:34;5.17;;;2.43;;
35578;SDS011;21687;48.900;9.188;2024-01-06T02:14:01;6.43;;;2.03;;
35578;SDS011;21687;48.900;9.188;2024-01-06T02:16:27;3.20;;;1.93;;
35578;SDS011;21687;48.900;9.188;2024-01-06T02:18:54;4.80;;;2.20;;
35578;SDS011;21687;48.900;9.188;2024-01-06T02:21:23;8.63;;;2.17;;
35578;SDS011;21687;48.900;9.188;2024-01-06T02:23:52;8.87;;;2.40;;
35578;SDS011;21687;48.900;9.188;2024-01-06T02:26:19;5.40;;;2.57;;
35578;SDS011;21687;48.900;9.188;2024-01-06T02:28:45;6.30;;;2.53;;
35578;SDS011;21687;48.900;9.188;2024-01-06T02:31:13;3.87;;;1.87;;
35578;SDS011;21687;48.900;9.188;2024-01-06T02:33:39;5.97;;;2.00;;
35578;SDS011;21687;48.900;9.188;2024-01-06T02:36:06;4.40;;;2.10;;
35578;SDS011;21687;48.900;9.188;2024-01-06T02:38:32;5.93;;;2.50;;
35578;SDS011;21687;48.900;9.188;2024-01-06T02:40:59;4.00;;;2.00;;
35578;SDS011;21687;48.900;9.188;2024-01-06T02:43:25;5.27;;;1.90;;
35578;SDS011;21687;48.900;9.188;2024-01-06T02:45:51;3.43;;;2.00;;
35578;SDS011;21687;48.900;9.188;2024-01-06T02:48:18;5.60;;;1.87;;
35578;SDS011;21687;48.900;9.188;2024-01-06T02:50:44;4.43;;;1.93;;
35578;SDS011;21687;48.900;9.188;2024-01-06T02:53:10;5.10;;;2.17;;
35578;SDS011;21687;48.900;9.188;2024-01-06T02:55:38;4.20;;;1.70;;
35578;SDS011;21687;48.900;9.188;2024-01-06T02:58:04;4.77;;;1.77;;
35578;SDS011;21687;48.900;9.188;2024-01-06T03:00:31;6.43;;;1.80;;
35578;SDS011;21687;48.900;9.188;2024-01-06T03:02:57;4.10;;;1.67;;
35578;SDS011;21687;48.900;9.188;2024-01-06T03:05:24;4.97;;;2.83;;
35578;SDS011;21687;48.900;9.188;2024-01-06T03:07:51;2.87;;;1.90;;
35578;SDS011;21687;48.900;9.188;2024-01-06T03:10:17;3.53;;;1.90;;
35578;SDS011;21687;48.900;9.188;2024-01-06T03:12:44;5.00;;;1.70;;
35578;SDS011;21687;48.900;9.188;2024-01-06T03:15:10;8.57;;;2.23;;
35578;SDS011;21687;48.900;9.188;2024-01-06T03:17:37;5.93;;;2.20;;
35578;SDS011;21687;48.900;9.188;2024-01-06T03:20:03;4.33;;;2.00;;
35578;SDS011;21687;48.900;9.188;2024-01-06T03:22:30;4.70;;;1.70;;
35578;SDS011;21687;48.900;9.188;2024-01-06T03:24:57;8.10;;;2.37;;
35578;SDS011;21687;48.900;9.188;2024-01-06T03:27:23;7.73;;;1.90;;
35578;SDS011;21687;48.900;9.188;2024-01-06T03:29:50;5.80;;;2.60;;
35578;SDS011;21687;48.900;9.188;2024-01-06T03:32:16;4.93;;;1.93;;
35578;SDS011;21687;48.900;9.188;2024-01-06T03:34:42;4.93;;;2.00;;
35578;SDS011;21687;48.900;9.188;2024-01-06T03:37:09;4.30;;;1.70;;
35578;SDS011;21687;48.900;9.188;2024-01-06T03:39:35;6.10;;;1.80;;
35578;SDS011;21687;48.900;9.188;2024-01-06T03:42:01;5.50;;;1.70;;
35578;SDS011;21687;48.900;9.188;2024-01-06T03:44:28;6.13;;;1.90;;
35578;SDS011;21687;48.900;9.188;2024-01-06T03:46:56;11.00;;;2.10;;
35578;SDS011;21687;48.900;9.188;2024-01-06T03:49:23;4.77;;;2.67;;
35578;SDS011;21687;48.900;9.188;2024-01-06T03:51:50;4.77;;;1.90;;
35578;SDS011;21687;48.900;9.188;2024-01-06T03:54:16;5.17;;;1.73;;
35578;SDS011;21687;48.900;9.188;2024-01-06T03:56:47;6.77;;;2.13;;
35578;SDS011;21687;48.900;9.188;2024-01-06T03:59:14;3.90;;;1.77;;
35578;SDS011;21687;48.900;9.188;2024-01-06T04:01:40;5.60;;;1.80;;
35578;SDS011;21687;48.900;9.188;2024-01-06T04:04:07;7.80;;;1.90;;
35578;SDS011;21687;48.900;9.188;2024-01-06T04:06:33;5.53;;;1.70;;
35578;SDS011;21687;48.900;9.188;2024-01-06T04:09:00;6.43;;;2.00;;
35578;SDS011;21687;48.900;9.188;2024-01-06T04:11:27;5.23;;;2.20;;
35578;SDS011;21687;48.900;9.188;2024-01-06T04:13:53;8.60;;;2.50;;
35578;SDS011;21687;48.900;9.188;2024-01-06T04:16:20;6.33;;;2.17;;
35578;SDS011;21687;48.900;9.188;2024-01-06T04:18:46;5.70;;;2.10;;
35578;SDS011;21687;48.900;9.188;2024-01-06T04:21:12;3.53;;;1.80;;
35578;SDS011;21687;48.900;9.188;2024-01-06T04:23:39;6.33;;;2.30;;
35578;SDS011;21687;48.900;9.188;2024-01-06T04:26:05;4.03;;;2.30;;
35578;SDS011;21687;48.900;9.188;2024-01-06T04:28:32;7.40;;;2.43;;
35578;SDS011;21687;48.900;9.188;2024-01-06T04:30:58;6.07;;;1.87;;
35578;SDS011;21687;48.900;9.188;2024-01-06T04:33:24;6.47;;;2.60;;
35578;SDS011;21687;48.900;9.188;2024-01-06T04:35:51;4.83;;;2.27;;
35578;SDS011;21687;48.900;9.188;2024-01-06T04:38:17;5.07;;;2.50;;
35578;SDS011;21687;48.900;9.188;2024-01-06T04:40:44;5.97;;;2.30;;
35578;SDS011;21687;48.900;9.188;2024-01-06T04:43:10;9.47;;;2.30;;
35578;SDS011;21687;48.900;9.188;2024-01-06T04:45:37;5.20;;;2.50;;
35578;SDS011;21687;48.900;9.188;2024-01-06T04:48:03;5.93;;;2.20;;
35578;SDS011;21687;48.900;9.188;2024-01-06T04:50:30;5.90;;;2.40;;
35578;SDS011;21687;48.900;9.188;2024-01-06T04:52:57;7.90;;;2.73;;
35578;SDS011;21687;48.900;9.188;2024-01-06T04:55:23;7.47;;;2.80;;
35578;SDS011;21687;48.900;9.188;2024-01-06T04:57:50;6.70;;;2.37;;
35578;SDS011;21687;48.900;9.188;2024-01-06T05:00:16;7.63;;;2.70;;
35578;SDS011;21687;48.900;9.188;2024-01-06T05:02:43;6.57;;;2.90;;
35578;SDS011;21687;48.900;9.188;2024-01-06T05:05:09;8.87;;;2.53;;
35578;SDS011;21687;48.900;9.188;2024-01-06T05:07:36;5.20;;;2.40;;
35578;SDS011;21687;48.900;9.188;2024-01-06T05:10:02;7.27;;;2.63;;
35578;SDS011;21687;48.900;9.188;2024-01-06T05:12:29;5.70;;;2.97;;
35578;SDS011;21687;48.900;9.188;2024-01-06T05:14:55;5.33;;;2.60;;
35578;SDS011;21687;48.900;9.188;2024-01-06T05:17:22;6.87;;;3.10;;
35578;SDS011;21687;48.900;9.188;2024-01-06T05:19:48;5.77;;;2.53;;
35578;SDS011;21687;48.900;9.188;2024-01-06T05:22:14;4.20;;;2.37;;
35578;SDS011;21687;48.900;9.188;2024-01-06T05:24:41;5.67;;;2.17;;
35578;SDS011;21687;48.900;9.188;2024-01-06T05:27:07;7.37;;;2.47;;
35578;SDS011;21687;48.900;9.188;2024-01-06T05:29:33;7.30;;;2.57;;
35578;SDS011;21687;48.900;9.188;2024-01-06T05:32:00;5.53;;;2.40;;
35578;SDS011;21687;48.900;9.188;2024-01-06T05:34:26;8.57;;;2.83;;
35578;SDS011;21687;48.900;9.188;2024-01-06T05:36:52;4.77;;;2.37;;
35578;SDS011;21687;48.900;9.188;2024-01-06T05:39:19;5.17;;;2.60;;
35578;SDS011;21687;48.900;9.188;2024-01-06T05:41:45;8.40;;;2.50;;
35578;SDS011;21687;48.900;9.188;2024-01-06T05:44:11;6.30;;;2.57;;
35578;SDS011;21687;48.900;9.188;2024-01-06T05:46:38;5.77;;;2.80;;
35578;SDS011;21687;48.900;9.188;2024-01-06T05:49:04;4.23;;;2.40;;
35578;SDS011;21687;48.900;9.188;2024-01-06T05:51:30;9.07;;;2.80;;
35578;SDS011;21687;48.900;9.188;2024-01-06T05:53:57;7.33;;;2.83;;
35578;SDS011;21687;48.900;9.188;2024-01-06T05:56:26;5.67;;;3.50;;
35578;SDS011;21687;48.900;9.188;2024-01-06T05:58:53;5.33;;;2.47;;
35578;SDS011;21687;48.900;9.188;2024-01-06T06:01:20;6.93;;;2.93;;
35578;SDS011;21687;48.900;9.188;2024-01-06T06:03:46;8.73;;;2.97;;
35578;SDS011;21687;48.900;9.188;2024-01-06T06:06:14;5.00;;;2.90;;
35578;SDS011;21687;48.900;9.188;2024-01-06T06:08:41;8.20;;;3.10;;
35578;SDS011;21687;48.900;9.188;2024-01-06T06:11:10;6.20;;;3.03;;
35578;SDS011;21687;48.900;9.188;2024-01-06T06:13:42;5.97;;;3.20;;
35578;SDS011;21687;48.900;9.188;2024-01-06T06:16:09;6.30;;;3.10;;
35578;SDS011;21687;48.900;9.188;2024-01-06T06:18:39;10.00;;;3.30;;
35578;SDS011;21687;48.900;9.188;2024-01-06T06:21:06;7.67;;;3.27;;
35578;SDS011;21687;48.900;9.188;2024-01-06T06:23:33;7.13;;;3.20;;
35578;SDS011;21687;48.900;9.188;2024-01-06T06:26:04;5.63;;;3.20;;
35578;SDS011;21687;48.900;9.188;2024-01-06T06:28:31;7.73;;;3.33;;
35578;SDS011;21687;48.900;9.188;2024-01-06T06:30:57;7.60;;;3.70;;
35578;SDS011;21687;48.900;9.188;2024-01-06T06:33:24;9.93;;;4.03;;
35578;SDS011;21687;48.900;9.188;2024-01-06T06:35:50;4.83;;;3.40;;
35578;SDS011;21687;48.900;9.188;2024-01-06T06:38:17;5.23;;;3.30;;
35578;SDS011;21687;48.900;9.188;2024-01-06T06:40:43;7.53;;;3.67;;
35578;SDS011;21687;48.900;9.188;2024-01-06T06:43:10;7.47;;;3.07;;
35578;SDS011;21687;48.900;9.188;2024-01-06T06:45:36;9.60;;;3.23;;
35578;SDS011;21687;48.900;9.188;2024-01-06T06:48:03;7.23;;;3.17;;
35578;SDS011;21687;48.900;9.188;2024-01-06T06:50:29;5.47;;;3.20;;
35578;SDS011;21687;48.900;9.188;2024-01-06T06:52:56;7.97;;;3.27;;
35578;SDS011;21687;48.900;9.188;2024-01-06T06:55:22;5.67;;;3.30;;
35578;SDS011;21687;48.900;9.188;2024-01-06T06:57:49;7.53;;;3.33;;
35578;SDS011;21687;48.900;9.188;2024-01-06T07:00:15;5.17;;;2.93;;
35578;SDS011;21687;48.900;9.188;2024-01-06T07:02:42;3.93;;;3.00;;
35578;SDS011;21687;48.900;9.188;2024-01-06T07:05:08;6.93;;;3.37;;
35578;SDS011;21687;48.900;9.188;2024-01-06T07:07:35;4.87;;;3.40;;
35578;SDS011;21687;48.900;9.188;2024-01-06T07:10:03;6.17;;;3.07;;
35578;SDS011;21687;48.900;9.188;2024-01-06T07:12:31;4.73;;;3.37;;
35578;SDS011;21687;48.900;9.188;2024-01-06T07:14:57;7.50;;;2.80;;
35578;SDS011;21687;48.900;9.188;2024-01-06T07:17:24;5.00;;;3.73;;
35578;SDS011;21687;48.900;9.188;2024-01-06T07:19:50;6.00;;;3.27;;
35578;SDS011;21687;48.900;9.188;2024-01-06T07:22:17;4.47;;;3.03;;
35578;SDS011;21687;48.900;9.188;2024-01-06T07:24:43;4.93;;;3.00;;
35578;SDS011;21687;48.900;9.188;2024-01-06T07:27:10;3.33;;;2.53;;
35578;SDS011;21687;48.900;9.188;2024-01-06T07:29:36;5.37;;;2.93;;
35578;SDS011;21687;48.900;9.188;2024-01-06T07:32:04;4.00;;;3.30;;
35578;SDS011;21687;48.900;9.188;2024-01-06T07:34:31;4.17;;;3.10;;
35578;SDS011;21687;48.900;9.188;2024-01-06T07:36:58;5.37;;;3.13;;
35578;SDS011;21687;48.900;9.188;2024-01-06T07:39:25;6.03;;;3.70;;
35578;SDS011;21687;48.900;9.188;2024-01-06T07:41:51;5.60;;;3.23;;
35578;SDS011;21687;48.900;9.188;2024-01-06T07:44:17;4.87;;;3.57;;
35578;SDS011;21687;48.900;9.188;2024-01-06T07:46:50;3.67;;;2.90;;
35578;SDS011;21687;48.900;9.188;2024-01-06T07:49:17;3.90;;;2.93;;
35578;SDS011;21687;48.900;9.188;2024-01-06T07:51:43;5.30;;;2.97;;
35578;SDS011;21687;48.900;9.188;2024-01-06T07:54:10;7.47;;;2.90;;
35578;SDS011;21687;48.900;9.188;2024-01-06T07:56:37;3.47;;;2.63;;
35578;SDS011;21687;48.900;9.188;2024-01-06T07:59:04;3.77;;;2.70;;
35578;SDS011;21687;48.900;9.188;2024-01-06T08:01:31;2.70;;;2.50;;
35578;SDS011;21687;48.900;9.188;2024-01-06T08:03:58;3.23;;;2.90;;
35578;SDS011;21687;48.900;9.188;2024-01-06T08:06:24;4.80;;;2.70;;
35578;SDS011;21687;48.900;9.188;2024-01-06T08:08:51;3.83;;;3.00;;
35578;SDS011;21687;48.900;9.188;2024-01-06T08:11:17;5.27;;;3.17;;
35578;SDS011;21687;48.900;9.188;2024-01-06T08:13:45;3.87;;;3.00;;
35578;SDS011;21687;48.900;9.188;2024-01-06T08:16:12;5.73;;;3.33;;
35578;SDS011;21687;48.900;9.188;2024-01-06T08:18:38;3.50;;;3.20;;
35578;SDS011;21687;48.900;9.188;2024-01-06T08:21:05;4.30;;;3.10;;
35578;SDS011;21687;48.900;9.188;2024-01-06T08:23:31;4.17;;;2.97;;
35578;SDS011;21687;48.900;9.188;2024-01-06T08:25:58;4.77;;;3.50;;
35578;SDS011;21687;48.900;9.188;2024-01-06T08:28:25;3.30;;;2.93;;
35578;SDS011;21687;48.900;9.188;2024-01-06T08:30:51;2.90;;;2.60;;
35578;SDS011;21687;48.900;9.188;2024-01-06T08:33:18;4.77;;;3.10;;
35578;SDS011;21687;48.900;9.188;2024-01-06T08:35:44;4.20;;;3.27;;
35578;SDS011;21687;48.900;9.188;2024-01-06T08:38:10;6.30;;;4.27;;
35578;SDS011;21687;48.900;9.188;2024-01-06T08:40:37;4.63;;;3.50;;
35578;SDS011;21687;48.900;9.188;2024-01-06T08:43:03;6.30;;;3.20;;
35578;SDS011;21687;48.900;9.188;2024-01-06T08:45:30;3.43;;;3.10;;
35578;SDS011;21687;48.900;9.188;2024-01-06T08:47:57;3.53;;;2.90;;
35578;SDS011;21687;48.900;9.188;2024-01-06T08:50:23;2.80;;;2.50;;
35578;SDS011;21687;48.900;9.188;2024-01-06T08:52:50;3.03;;;2.83;;
35578;SDS011;21687;48.900;9.188;2024-01-06T08:55:16;6.40;;;4.83;;
35578;SDS011;21687;48.900;9.188;2024-01-06T08:57:42;3.70;;;3.20;;
35578;SDS011;21687;48.900;9.188;2024-01-06T09:00:09;5.30;;;3.17;;
35578;SDS011;21687;48.900;9.188;2024-01-06T09:02:37;6.00;;;4.83;;
35578;SDS011;21687;48.900;9.188;2024-01-06T09:05:03;4.77;;;4.17;;
35578;SDS011;21687;48.900;9.188;2024-01-06T09:07:30;4.20;;;3.80;;
35578;SDS011;21687;48.900;9.188;2024-01-06T09:09:56;4.87;;;4.33;;
35578;SDS011;21687;48.900;9.188;2024-01-06T09:12:23;5.93;;;4.50;;
35578;SDS011;21687;48.900;9.188;2024-01-06T09:14:49;5.97;;;4.63;;
35578;SDS011;21687;48.900;9.188;2024-01-06T09:17:16;4.40;;;4.00;;
35578;SDS011;21687;48.900;9.188;2024-01-06T09:19:42;5.57;;;4.00;;
35578;SDS011;21687;48.900;9.188;2024-01-06T09:22:08;4.33;;;3.93;;
35578;SDS011;21687;48.900;9.188;2024-01-06T09:24:35;3.40;;;3.10;;
35578;SDS011;21687;48.900;9.188;2024-01-06T09:27:01;3.90;;;2.97;;
35578;SDS011;21687;48.900;9.188;2024-01-06T09:29:28;4.50;;;3.03;;
35578;SDS011;21687;48.900;9.188;2024-01-06T09:31:55;5.53;;;3.50;;
35578;SDS011;21687;48.900;9.188;2024-01-06T09:34:21;5.07;;;3.00;;
35578;SDS011;21687;48.900;9.188;2024-01-06T09:36:47;3.40;;;2.97;;
35578;SDS011;21687;48.900;9.188;2024-01-06T09:39:14;4.70;;;3.00;;
35578;SDS011;21687;48.900;9.188;2024-01-06T09:41:40;3.63;;;3.10;;
35578;SDS011;21687;48.900;9.188;2024-01-06T09:44:07;3.43;;;3.10;;
35578;SDS011;21687;48.900;9.188;2024-01-06T09:46:33;4.00;;;3.27;;
35578;SDS011;21687;48.900;9.188;2024-01-06T09:49:02;3.77;;;3.23;;
35578;SDS011;21687;48.900;9.188;2024-01-06T09:51:29;3.40;;;2.60;;
35578;SDS011;21687;48.900;9.188;2024-01-06T09:53:56;5.93;;;3.70;;
35578;SDS011;21687;48.900;9.188;2024-01-06T09:56:28;3.77;;;3.40;;
35578;SDS011;21687;48.900;9.188;2024-01-06T09:58:55;3.50;;;3.20;;
35578;SDS011;21687;48.900;9.188;2024-01-06T10:01:22;4.93;;;3.07;;
35578;SDS011;21687;48.900;9.188;2024-01-06T10:03:48;4.53;;;3.50;;
35578;SDS011;21687;48.900;9.188;2024-01-06T10:06:15;4.93;;;3.33;;
35578;SDS011;21687;48.900;9.188;2024-01-06T10:08:48;4.30;;;3.20;;
35578;SDS011;21687;48.900;9.188;2024-01-06T10:11:15;4.43;;;3.43;;
35578;SDS011;21687;48.900;9.188;2024-01-06T10:13:43;3.90;;;3.50;;
35578;SDS011;21687;48.900;9.188;2024-01-06T10:16:09;4.93;;;3.50;;
35578;SDS011;21687;48.900;9.188;2024-01-06T10:18:36;6.30;;;3.30;;
35578;SDS011;21687;48.900;9.188;2024-01-06T10:21:03;3.30;;;3.00;;
35578;SDS011;21687;48.900;9.188;2024-01-06T10:23:33;4.73;;;3.23;;
35578;SDS011;21687;48.900;9.188;2024-01-06T10:26:02;3.83;;;3.37;;
35578;SDS011;21687;48.900;9.188;2024-01-06T10:28:28;4.57;;;3.50;;
35578;SDS011;21687;48.900;9.188;2024-01-06T10:30:55;4.37;;;3.10;;
35578;SDS011;21687;48.900;9.188;2024-01-06T10:33:23;4.03;;;3.63;;
35578;SDS011;21687;48.900;9.188;2024-01-06T10:35:50;4.50;;;3.40;;
35578;SDS011;21687;48.900;9.188;2024-01-06T10:38:20;4.57;;;3.90;;
35578;SDS011;21687;48.900;9.188;2024-01-06T10:40:56;4.30;;;3.90;;
35578;SDS011;21687;48.900;9.188;2024-01-06T10:43:33;4.03;;;3.63;;
35578;SDS011;21687;48.900;9.188;2024-01-06T10:46:04;6.87;;;4.33;;
35578;SDS011;21687;48.900;9.188;2024-01-06T10:48:35;7.43;;;4.00;;
35578;SDS011;21687;48.900;9.188;2024-01-06T10:51:11;4.67;;;3.97;;
35578;SDS011;21687;48.900;9.188;2024-01-06T10:53:41;5.30;;;4.27;;
35578;SDS011;21687;48.900;9.188;2024-01-06T10:56:08;4.80;;;4.33;;
35578;SDS011;21687;48.900;9.188;2024-01-06T10:58:39;4.57;;;4.17;;
35578;SDS011;21687;48.900;9.188;2024-01-06T11:01:13;5.63;;;4.67;;
35578;SDS011;21687;48.900;9.188;2024-01-06T11:03:39;6.50;;;5.17;;
35578;SDS011;21687;48.900;9.188;2024-01-06T11:06:06;4.83;;;4.00;;
35578;SDS011;21687;48.900;9.188;2024-01-06T11:08:40;5.40;;;4.90;;
35578;SDS011;21687;48.900;9.188;2024-01-06T11:11:30;6.40;;;5.07;;
35578;SDS011;21687;48.900;9.188;2024-01-06T11:16:45;5.93;;;4.73;;
35578;SDS011;21687;48.900;9.188;2024-01-06T11:25:07;5.67;;;4.97;;
35578;SDS011;21687;48.900;9.188;2024-01-06T11:27:39;5.83;;;4.70;;
35578;SDS011;21687;48.900;9.188;2024-01-06T11:30:07;5.77;;;5.20;;
35578;SDS011;21687;48.900;9.188;2024-01-06T11:32:43;7.27;;;5.10;;
35578;SDS011;21687;48.900;9.188;2024-01-06T11:35:12;5.50;;;5.00;;
35578;SDS011;21687;48.900;9.188;2024-01-06T11:40:10;6.30;;;5.10;;
35578;SDS011;21687;48.900;9.188;2024-01-06T11:42:56;9.57;;;6.23;;
35578;SDS011;21687;48.900;9.188;2024-01-06T11:45:34;7.50;;;5.77;;
35578;SDS011;21687;48.900;9.188;2024-01-06T11:48:02;7.50;;;5.60;;
35578;SDS011;21687;48.900;9.188;2024-01-06T11:50:34;7.40;;;6.33;;
35578;SDS011;21687;48.900;9.188;2024-01-06T11:53:02;7.27;;;6.13;;
35578;SDS011;21687;48.900;9.188;2024-01-06T11:55:29;7.40;;;5.67;;
35578;SDS011;21687;48.900;9.188;2024-01-06T11:58:00;7.77;;;5.13;;
35578;SDS011;21687;48.900;9.188;2024-01-06T12:00:31;6.30;;;5.50;;
35578;SDS011;21687;48.900;9.188;2024-01-06T12:02:59;6.73;;;5.07;;
35578;SDS011;21687;48.900;9.188;2024-01-06T12:05:26;6.43;;;5.50;;
35578;SDS011;21687;48.900;9.188;2024-01-06T12:07:54;6.37;;;5.43;;
35578;SDS011;21687;48.900;9.188;2024-01-06T12:10:25;6.43;;;5.80;;
35578;SDS011;21687;48.900;9.188;2024-01-06T12:13:04;9.03;;;5.70;;
35578;SDS011;21687;48.900;9.188;2024-01-06T12:15:33;7.17;;;5.63;;
35578;SDS011;21687;48.900;9.188;2024-01-06T12:18:03;7.17;;;6.07;;
35578;SDS011;21687;48.900;9.188;2024-01-06T12:20:30;5.70;;;5.20;;
35578;SDS011;21687;48.900;9.188;2024-01-06T12:22:57;7.03;;;5.73;;
35578;SDS011;21687;48.900;9.188;2024-01-06T12:25:25;7.60;;;5.73;;
35578;SDS011;21687;48.900;9.188;2024-01-06T12:27:54;7.63;;;6.13;;
35578;SDS011;21687;48.900;9.188;2024-01-06T12:30:21;7.93;;;6.10;;
35578;SDS011;21687;48.900;9.188;2024-01-06T12:32:49;7.10;;;6.40;;
35578;SDS011;21687;48.900;9.188;2024-01-06T12:35:17;10.83;;;6.50;;
35578;SDS011;21687;48.900;9.188;2024-01-06T12:37:45;6.80;;;6.10;;
35578;SDS011;21687;48.900;9.188;2024-01-06T12:40:11;7.47;;;6.20;;
35578;SDS011;21687;48.900;9.188;2024-01-06T12:42:39;7.60;;;6.30;;
35578;SDS011;21687;48.900;9.188;2024-01-06T12:45:07;7.00;;;6.27;;
35578;SDS011;21687;48.900;9.188;2024-01-06T12:47:35;7.03;;;6.00;;
35578;SDS011;21687;48.900;9.188;2024-01-06T12:50:01;7.67;;;6.27;;
35578;SDS011;21687;48.900;9.188;2024-01-06T12:52:29;8.43;;;6.60;;
35578;SDS011;21687;48.900;9.188;2024-01-06T12:54:55;7.63;;;6.37;;
35578;SDS011;21687;48.900;9.188;2024-01-06T12:57:22;7.23;;;6.53;;
35578;SDS011;21687;48.900;9.188;2024-01-06T12:59:49;8.23;;;6.90;;
35578;SDS011;21687;48.900;9.188;2024-01-06T13:02:15;8.17;;;6.43;;
35578;SDS011;21687;48.900;9.188;2024-01-06T13:04:42;7.60;;;6.80;;
35578;SDS011;21687;48.900;9.188;2024-01-06T13:07:08;7.93;;;6.70;;
35578;SDS011;21687;48.900;9.188;2024-01-06T13:09:34;8.07;;;7.23;;
35578;SDS011;21687;48.900;9.188;2024-01-06T13:12:03;8.20;;;7.00;;
35578;SDS011;21687;48.900;9.188;2024-01-06T13:14:31;10.33;;;7.60;;
35578;SDS011;21687;48.900;9.188;2024-01-06T13:16:58;8.53;;;7.23;;
35578;SDS011;21687;48.900;9.188;2024-01-06T13:19:24;9.20;;;7.53;;
35578;SDS011;21687;48.900;9.188;2024-01-06T13:21:52;9.50;;;7.93;;
35578;SDS011;21687;48.900;9.188;2024-01-06T13:24:18;10.87;;;7.53;;
35578;SDS011;21687;48.900;9.188;2024-01-06T13:26:45;10.83;;;8.50;;
35578;SDS011;21687;48.900;9.188;2024-01-06T13:29:11;11.53;;;8.70;;
35578;SDS011;21687;48.900;9.188;2024-01-06T13:31:38;10.63;;;8.50;;
35578;SDS011;21687;48.900;9.188;2024-01-06T13:34:05;11.70;;;8.73;;
35578;SDS011;21687;48.900;9.188;2024-01-06T13:36:32;11.20;;;9.17;;
35578;SDS011;21687;48.900;9.188;2024-01-06T13:38:58;8.97;;;8.07;;
35578;SDS011;21687;48.900;9.188;2024-01-06T13:41:25;11.60;;;8.43;;
35578;SDS011;21687;48.900;9.188;2024-01-06T13:43:51;10.90;;;9.10;;
35578;SDS011;21687;48.900;9.188;2024-01-06T13:46:18;12.50;;;8.80;;
35578;SDS011;21687;48.900;9.188;2024-01-06T13:48:44;9.53;;;8.60;;
35578;SDS011;21687;48.900;9.188;2024-01-06T13:51:11;9.70;;;8.70;;
35578;SDS011;21687;48.900;9.188;2024-01-06T13:53:37;12.47;;;8.90;;
35578;SDS011;21687;48.900;9.188;2024-01-06T13:56:04;12.13;;;8.43;;
35578;SDS011;21687;48.900;9.188;2024-01-06T13:58:31;11.00;;;8.70;;
35578;SDS011;21687;48.900;9.188;2024-01-06T14:00:57;9.50;;;8.40;;
35578;SDS011;21687;48.900;9.188;2024-01-06T14:03:23;9.40;;;8.20;;
35578;SDS011;21687;48.900;9.188;2024-01-06T14:05:50;12.50;;;9.20;;
35578;SDS011;21687;48.900;9.188;2024-01-06T14:08:18;10.30;;;8.97;;
35578;SDS011;21687;48.900;9.188;2024-01-06T14:10:45;11.33;;;8.57;;
35578;SDS011;21687;48.900;9.188;2024-01-06T14:13:11;10.97;;;8.80;;
35578;SDS011;21687;48.900;9.188;2024-01-06T14:15:37;11.70;;;9.60;;
35578;SDS011;21687;48.900;9.188;2024-01-06T14:18:05;10.70;;;9.10;;
35578;SDS011;21687;48.900;9.188;2024-01-06T14:20:31;15.50;;;12.17;;
35578;SDS011;21687;48.900;9.188;2024-01-06T14:23:03;15.53;;;12.63;;
35578;SDS011;21687;48.900;9.188;2024-01-06T14:25:32;10.50;;;9.40;;
35578;SDS011;21687;48.900;9.188;2024-01-06T14:27:59;13.50;;;9.53;;
35578;SDS011;21687;48.900;9.188;2024-01-06T14:30:25;10.37;;;9.27;;
35578;SDS011;21687;48.900;9.188;2024-01-06T14:32:52;13.10;;;10.40;;
35578;SDS011;21687;48.900;9.188;2024-01-06T14:35:18;12.60;;;10.30;;
35578;SDS011;21687;48.900;9.188;2024-01-06T14:37:44;13.57;;;10.83;;
35578;SDS011;21687;48.900;9.188;2024-01-06T14:40:11;23.87;;;15.27;;
35578;SDS011;21687;48.900;9.188;2024-01-06T14:42:38;20.57;;;14.20;;
35578;SDS011;21687;48.900;9.188;2024-01-06T14:45:04;16.27;;;11.77;;
35578;SDS011;21687;48.900;9.188;2024-01-06T14:47:33;16.00;;;11.00;;
35578;SDS011;21687;48.900;9.188;2024-01-06T14:49:59;13.33;;;11.80;;
35578;SDS011;21687;48.900;9.188;2024-01-06T14:52:25;10.73;;;9.60;;
35578;SDS011;21687;48.900;9.188;2024-01-06T14:54:53;13.93;;;11.77;;
35578;SDS011;21687;48.900;9.188;2024-01-06T14:57:19;13.53;;;11.43;;